Time;durP1;ratioP1;P1;durP2;ratioP2;P2;SDS_P1;SDS_P2;PMS_P1;PMS_P2;Temp;Humidity;BMP_temperature;BMP_pressure;BME280_temperature;BME280_humidity;BME280_pressure;Samples;Min_cycle;Max_cycle;Signal;HPM_P1;HPM_P2
2022/01/03 00:00:14;;;;;;;7.83;4.20;;;;;;;;;;5053890;28;20430;-53
2022/01/03 00:02:40;;;;;;;9.43;4.40;;;;;;;;;;5053603;28;20409;-53
2022/01/03 00:05:07;;;;;;;8.17;4.63;;;;;;;;;;5054242;28;20449;-54
2022/01/03 00:07:33;;;;;;;7.40;4.10;;;;;;;;;;5053320;28;20900;-53
2022/01/03 00:09:59;;;;;;;8.13;4.57;;;;;;;;;;5053524;28;20403;-53
2022/01/03 00:12:27;;;;;;;11.73;3.93;;;;;;;;;;5053399;28;20398;-53
2022/01/03 00:14:53;;;;;;;8.63;4.30;;;;;;;;;;5053373;28;20408;-53
2022/01/03 00:17:19;;;;;;;5.53;3.90;;;;;;;;;;5052933;28;20413;-54
2022/01/03 00:19:46;;;;;;;7.77;3.70;;;;;;;;;;5053399;28;20409;-53
2022/01/03 00:22:12;;;;;;;5.53;3.10;;;;;;;;;;5053408;28;20435;-54
2022/01/03 00:24:38;;;;;;;14.97;4.50;;;;;;;;;;5053844;28;20456;-53
2022/01/03 00:27:05;;;;;;;12.10;3.93;;;;;;;;;;5053811;28;20489;-53
2022/01/03 00:29:45;;;;;;;10.13;3.40;;;;;;;;;;5053713;28;20455;-53
2022/01/03 00:32:14;;;;;;;10.90;3.67;;;;;;;;;;5053970;28;20496;-53
2022/01/03 00:34:40;;;;;;;5.73;2.77;;;;;;;;;;5054008;28;20941;-53
2022/01/03 00:37:07;;;;;;;12.13;3.10;;;;;;;;;;5053604;28;20877;-52
2022/01/03 00:39:33;;;;;;;8.70;3.97;;;;;;;;;;5054376;28;20763;-53
2022/01/03 00:41:59;;;;;;;11.20;4.00;;;;;;;;;;5052956;28;20504;-52
2022/01/03 00:44:26;;;;;;;8.00;4.10;;;;;;;;;;5052283;28;20556;-52
2022/01/03 00:46:53;;;;;;;9.50;3.90;;;;;;;;;;5052481;28;20401;-52
2022/01/03 00:49:19;;;;;;;13.30;4.83;;;;;;;;;;5052654;28;20952;-52
2022/01/03 00:51:46;;;;;;;17.93;4.80;;;;;;;;;;5052765;28;20424;-52
2022/01/03 00:54:12;;;;;;;10.10;5.27;;;;;;;;;;5052808;28;20845;-52
2022/01/03 00:56:43;;;;;;;18.97;3.90;;;;;;;;;;5053454;28;20404;-53
2022/01/03 00:59:24;;;;;;;10.30;3.93;;;;;;;;;;5054345;28;20389;-52
2022/01/03 01:01:51;;;;;;;17.87;3.57;;;;;;;;;;5054541;28;20428;-52
2022/01/03 01:04:19;;;;;;;13.67;4.13;;;;;;;;;;5055126;28;20465;-53
2022/01/03 01:06:45;;;;;;;14.50;4.03;;;;;;;;;;5054802;28;20861;-52
2022/01/03 01:09:14;;;;;;;11.70;3.40;;;;;;;;;;5054026;28;20397;-52
2022/01/03 01:11:44;;;;;;;13.63;3.83;;;;;;;;;;5054009;28;20440;-53
2022/01/03 01:14:11;;;;;;;12.27;3.40;;;;;;;;;;5053417;28;20409;-53
2022/01/03 01:16:37;;;;;;;11.40;3.20;;;;;;;;;;5052818;28;20405;-52
2022/01/03 01:19:04;;;;;;;17.97;3.50;;;;;;;;;;5053830;28;20408;-53
2022/01/03 01:21:31;;;;;;;14.30;3.73;;;;;;;;;;5054106;28;20789;-53
2022/01/03 01:23:57;;;;;;;19.63;5.00;;;;;;;;;;5054654;28;20409;-53
2022/01/03 01:29:09;;;;;;;15.20;4.83;;;;;;;;;;5054832;28;20396;-52
2022/01/03 01:31:35;;;;;;;19.87;3.23;;;;;;;;;;5054680;28;20412;-52
2022/01/03 01:34:03;;;;;;;14.17;3.00;;;;;;;;;;5054354;28;20492;-53
2022/01/03 01:36:30;;;;;;;16.43;4.40;;;;;;;;;;5054567;28;20401;-52
2022/01/03 01:39:07;;;;;;;26.97;4.67;;;;;;;;;;5054715;28;20397;-52
2022/01/03 01:41:37;;;;;;;16.03;3.93;;;;;;;;;;5054651;28;20421;-52
2022/01/03 01:44:06;;;;;;;7.43;2.77;;;;;;;;;;5054568;28;20421;-53
2022/01/03 01:46:33;;;;;;;21.57;3.50;;;;;;;;;;5054470;28;20444;-52
2022/01/03 01:49:02;;;;;;;19.33;3.50;;;;;;;;;;5054716;28;20419;-53
2022/01/03 01:51:28;;;;;;;22.50;3.43;;;;;;;;;;5054665;28;20499;-53
2022/01/03 01:53:55;;;;;;;10.47;3.23;;;;;;;;;;5054475;28;20408;-53
2022/01/03 01:56:25;;;;;;;7.43;2.80;;;;;;;;;;5054079;28;20766;-53
2022/01/03 01:59:03;;;;;;;22.80;4.10;;;;;;;;;;5053856;28;20780;-53
2022/01/03 02:01:41;;;;;;;8.53;2.50;;;;;;;;;;5053775;28;20459;-53
2022/01/03 02:04:16;;;;;;;9.83;2.80;;;;;;;;;;5053527;28;20454;-53
2022/01/03 02:06:46;;;;;;;15.67;3.97;;;;;;;;;;5053140;28;20918;-52
2022/01/03 02:09:20;;;;;;;21.00;3.00;;;;;;;;;;5053924;28;20389;-53
2022/01/03 02:11:53;;;;;;;14.30;2.50;;;;;;;;;;5053569;28;20428;-53
2022/01/03 02:14:20;;;;;;;17.47;2.90;;;;;;;;;;5052784;28;20798;-53
2022/01/03 02:16:46;;;;;;;13.50;3.77;;;;;;;;;;5052897;28;20401;-52
2022/01/03 02:19:13;;;;;;;15.00;3.50;;;;;;;;;;5052890;28;20407;-53
2022/01/03 02:21:39;;;;;;;16.43;3.80;;;;;;;;;;5052723;28;20842;-53
2022/01/03 02:24:42;;;;;;;10.03;2.57;;;;;;;;;;5051824;28;20402;-53
2022/01/03 02:27:08;;;;;;;9.63;3.23;;;;;;;;;;5053486;28;20387;-53
2022/01/03 02:29:34;;;;;;;15.97;3.83;;;;;;;;;;5055917;28;20389;-53
2022/01/03 02:32:00;;;;;;;12.50;4.73;;;;;;;;;;5055611;28;20946;-53
2022/01/03 02:34:29;;;;;;;13.30;3.60;;;;;;;;;;5055235;28;20754;-53
2022/01/03 02:36:56;;;;;;;11.40;3.27;;;;;;;;;;5054956;28;20397;-53
2022/01/03 02:39:22;;;;;;;11.30;3.20;;;;;;;;;;5054984;28;20409;-53
2022/01/03 02:41:48;;;;;;;8.90;2.60;;;;;;;;;;5055029;28;20421;-53
2022/01/03 02:44:18;;;;;;;11.40;2.60;;;;;;;;;;5053573;28;20420;-53
2022/01/03 02:46:44;;;;;;;22.23;2.90;;;;;;;;;;5055055;28;20389;-53
2022/01/03 02:49:09;;;;;;;8.83;3.13;;;;;;;;;;5055224;28;20458;-53
2022/01/03 02:51:35;;;;;;;12.10;3.27;;;;;;;;;;5054982;28;20436;-53
2022/01/03 02:54:02;;;;;;;5.80;2.90;;;;;;;;;;5054876;28;20780;-53
2022/01/03 02:56:34;;;;;;;18.63;3.53;;;;;;;;;;5054725;28;20495;-53
2022/01/03 02:59:00;;;;;;;9.93;2.53;;;;;;;;;;5054780;28;20408;-53
2022/01/03 03:01:26;;;;;;;18.63;3.17;;;;;;;;;;5054663;28;20543;-53
2022/01/03 03:03:52;;;;;;;10.77;2.70;;;;;;;;;;5054671;28;20487;-53
2022/01/03 03:06:18;;;;;;;6.73;3.33;;;;;;;;;;5054493;28;20457;-53
2022/01/03 03:08:44;;;;;;;9.70;3.57;;;;;;;;;;5054447;28;20480;-53
2022/01/03 03:11:10;;;;;;;11.47;3.43;;;;;;;;;;5054819;28;20420;-53
2022/01/03 03:13:36;;;;;;;20.37;2.80;;;;;;;;;;5055421;28;20401;-53
2022/01/03 03:16:01;;;;;;;8.40;4.37;;;;;;;;;;5053508;28;20463;-53
2022/01/03 03:18:27;;;;;;;8.13;2.50;;;;;;;;;;5055059;28;20397;-53
2022/01/03 03:20:54;;;;;;;14.63;3.10;;;;;;;;;;5055433;28;20816;-53
2022/01/03 03:23:23;;;;;;;10.77;3.23;;;;;;;;;;5055498;28;20398;-53
2022/01/03 03:25:49;;;;;;;10.57;2.70;;;;;;;;;;5055720;28;20453;-53
2022/01/03 03:28:16;;;;;;;5.87;2.03;;;;;;;;;;5054206;28;20972;-53
2022/01/03 03:30:43;;;;;;;12.83;3.37;;;;;;;;;;5056149;28;20429;-53
2022/01/03 03:33:11;;;;;;;8.83;2.57;;;;;;;;;;5054034;28;20417;-53
2022/01/03 03:35:38;;;;;;;13.67;2.23;;;;;;;;;;5055842;28;20716;-53
2022/01/03 03:38:04;;;;;;;7.70;2.60;;;;;;;;;;5054907;28;20458;-53
2022/01/03 03:40:30;;;;;;;11.30;3.10;;;;;;;;;;5055725;28;20940;-53
2022/01/03 03:42:56;;;;;;;4.97;2.00;;;;;;;;;;5055743;28;20487;-53
2022/01/03 03:45:22;;;;;;;7.17;2.77;;;;;;;;;;5055996;28;20937;-53
2022/01/03 03:47:48;;;;;;;10.53;2.17;;;;;;;;;;5055417;28;20395;-54
2022/01/03 03:50:14;;;;;;;13.73;2.43;;;;;;;;;;5056540;28;20417;-54
2022/01/03 03:52:41;;;;;;;8.93;2.30;;;;;;;;;;5055626;28;20468;-53
2022/01/03 03:55:07;;;;;;;16.67;2.87;;;;;;;;;;5055573;28;20399;-54
2022/01/03 03:57:33;;;;;;;12.10;2.23;;;;;;;;;;5055706;28;20408;-54
2022/01/03 04:00:00;;;;;;;17.50;2.70;;;;;;;;;;5055439;28;20406;-53
2022/01/03 04:02:26;;;;;;;12.03;2.80;;;;;;;;;;5055542;28;20914;-53
2022/01/03 04:04:52;;;;;;;12.60;2.97;;;;;;;;;;5055380;28;20456;-54
2022/01/03 04:07:18;;;;;;;13.40;3.27;;;;;;;;;;5055791;28;20397;-54
2022/01/03 04:09:44;;;;;;;10.97;2.80;;;;;;;;;;5055399;28;20924;-54
2022/01/03 04:12:10;;;;;;;17.63;2.70;;;;;;;;;;5055448;28;20410;-54
2022/01/03 04:14:36;;;;;;;11.27;2.33;;;;;;;;;;5055130;28;20407;-54
2022/01/03 04:17:02;;;;;;;11.43;2.60;;;;;;;;;;5055095;28;20771;-53
2022/01/03 04:19:28;;;;;;;18.93;3.03;;;;;;;;;;5053574;28;20425;-54
2022/01/03 04:21:54;;;;;;;9.40;2.53;;;;;;;;;;5054815;28;20860;-54
2022/01/03 04:24:20;;;;;;;10.50;2.73;;;;;;;;;;5055348;28;20833;-54
2022/01/03 04:26:49;;;;;;;13.87;2.80;;;;;;;;;;5055070;28;20404;-54
2022/01/03 04:29:15;;;;;;;15.30;2.87;;;;;;;;;;5054981;28;20791;-54
2022/01/03 04:31:41;;;;;;;14.27;2.77;;;;;;;;;;5055452;28;20503;-53
2022/01/03 04:34:08;;;;;;;16.23;2.83;;;;;;;;;;5055352;28;20962;-54
2022/01/03 04:36:34;;;;;;;9.07;2.60;;;;;;;;;;5054997;28;20444;-54
2022/01/03 04:39:00;;;;;;;7.80;2.13;;;;;;;;;;5055230;28;20405;-54
2022/01/03 04:41:26;;;;;;;13.77;2.47;;;;;;;;;;5054573;28;20425;-54
2022/01/03 04:43:53;;;;;;;11.43;3.77;;;;;;;;;;5054739;28;20436;-54
2022/01/03 04:46:19;;;;;;;7.60;2.30;;;;;;;;;;5052867;28;20507;-52
2022/01/03 04:48:45;;;;;;;14.30;2.57;;;;;;;;;;5052314;28;20409;-52
2022/01/03 04:51:11;;;;;;;12.50;2.97;;;;;;;;;;5051868;28;20428;-52
2022/01/03 04:53:39;;;;;;;7.73;2.50;;;;;;;;;;5052545;28;20401;-52
2022/01/03 04:56:05;;;;;;;8.40;3.43;;;;;;;;;;5052297;28;20415;-52
2022/01/03 04:58:31;;;;;;;9.33;2.80;;;;;;;;;;5052211;28;20482;-52
2022/01/03 05:00:57;;;;;;;7.00;2.20;;;;;;;;;;5052292;28;20975;-52
2022/01/03 05:03:23;;;;;;;13.47;2.37;;;;;;;;;;5052559;28;20900;-53
2022/01/03 05:05:49;;;;;;;11.27;2.60;;;;;;;;;;5052288;28;20874;-52
2022/01/03 05:08:15;;;;;;;11.10;3.57;;;;;;;;;;5051853;28;20397;-53
2022/01/03 05:10:41;;;;;;;10.90;2.80;;;;;;;;;;5052133;28;20460;-52
2022/01/03 05:13:07;;;;;;;9.50;2.90;;;;;;;;;;5052082;28;20946;-54
2022/01/03 05:15:33;;;;;;;8.53;1.93;;;;;;;;;;5052100;28;20558;-52
2022/01/03 05:17:59;;;;;;;8.13;2.67;;;;;;;;;;5051778;28;20397;-52
2022/01/03 05:20:25;;;;;;;14.73;3.07;;;;;;;;;;5052004;28;20784;-52
2022/01/03 05:22:51;;;;;;;7.43;2.40;;;;;;;;;;5051944;28;20545;-52
2022/01/03 05:25:17;;;;;;;13.27;3.47;;;;;;;;;;5051949;28;20547;-52
2022/01/03 05:27:44;;;;;;;7.77;3.10;;;;;;;;;;5050408;28;20415;-52
2022/01/03 05:30:10;;;;;;;11.57;3.07;;;;;;;;;;5051796;28;20504;-52
2022/01/03 05:32:36;;;;;;;12.93;2.90;;;;;;;;;;5051732;28;20417;-52
2022/01/03 05:35:03;;;;;;;10.67;2.23;;;;;;;;;;5051989;28;20468;-52
2022/01/03 05:37:28;;;;;;;9.97;2.23;;;;;;;;;;5050310;28;20511;-52
2022/01/03 05:39:54;;;;;;;23.23;3.67;;;;;;;;;;5051616;28;20492;-52
2022/01/03 05:42:20;;;;;;;7.30;2.80;;;;;;;;;;5052298;28;20413;-52
2022/01/03 05:44:46;;;;;;;7.30;2.13;;;;;;;;;;5051372;28;20464;-51
2022/01/03 05:47:12;;;;;;;13.87;2.70;;;;;;;;;;5051683;28;20429;-52
2022/01/03 05:49:38;;;;;;;10.83;2.43;;;;;;;;;;5051951;28;20817;-53
2022/01/03 05:52:04;;;;;;;11.97;2.60;;;;;;;;;;5051746;28;20467;-52
2022/01/03 05:54:30;;;;;;;12.30;2.63;;;;;;;;;;5051597;28;20409;-53
2022/01/03 05:56:56;;;;;;;10.63;3.20;;;;;;;;;;5051378;28;20421;-53
2022/01/03 05:59:22;;;;;;;11.07;3.60;;;;;;;;;;5051398;28;20492;-52
2022/01/03 06:01:49;;;;;;;10.30;2.47;;;;;;;;;;5054065;28;20429;-52
2022/01/03 06:04:23;;;;;;;12.60;2.43;;;;;;;;;;5055582;28;20462;-52
2022/01/03 06:07:05;;;;;;;3.60;2.00;;;;;;;;;;5055428;28;20397;-53
2022/01/03 06:09:31;;;;;;;10.37;2.63;;;;;;;;;;5055520;28;20912;-53
2022/01/03 06:12:01;;;;;;;7.50;2.60;;;;;;;;;;5055489;28;20417;-52
2022/01/03 06:14:27;;;;;;;15.47;2.50;;;;;;;;;;5055525;28;20898;-52
2022/01/03 06:16:53;;;;;;;16.67;4.90;;;;;;;;;;5055188;28;20803;-52
2022/01/03 06:19:19;;;;;;;14.87;2.97;;;;;;;;;;5055528;28;20393;-52
2022/01/03 06:21:45;;;;;;;3.47;2.40;;;;;;;;;;5055298;28;20793;-53
2022/01/03 06:24:12;;;;;;;7.60;2.00;;;;;;;;;;5055328;28;20437;-53
2022/01/03 06:26:41;;;;;;;8.20;2.60;;;;;;;;;;5054854;28;20393;-52
2022/01/03 06:29:07;;;;;;;8.17;3.13;;;;;;;;;;5055336;28;20405;-52
2022/01/03 06:31:34;;;;;;;12.70;2.20;;;;;;;;;;5055115;28;20413;-52
2022/01/03 06:34:00;;;;;;;15.20;3.00;;;;;;;;;;5055252;28;20479;-52
2022/01/03 06:36:26;;;;;;;9.53;2.70;;;;;;;;;;5054945;28;20462;-55
2022/01/03 06:38:52;;;;;;;7.07;2.13;;;;;;;;;;5054922;28;20411;-52
2022/01/03 06:41:18;;;;;;;7.67;2.20;;;;;;;;;;5054860;28;20417;-52
2022/01/03 06:43:44;;;;;;;7.00;2.60;;;;;;;;;;5054911;28;20445;-53
2022/01/03 06:46:10;;;;;;;11.60;3.10;;;;;;;;;;5054848;28;20492;-53
2022/01/03 06:48:36;;;;;;;14.37;2.70;;;;;;;;;;5053846;28;20405;-53
2022/01/03 06:51:02;;;;;;;9.00;3.00;;;;;;;;;;5054671;28;20417;-52
2022/01/03 06:53:28;;;;;;;14.40;2.97;;;;;;;;;;5054586;28;20761;-53
2022/01/03 06:55:54;;;;;;;15.27;3.07;;;;;;;;;;5054737;28;20498;-53
2022/01/03 06:58:20;;;;;;;8.70;2.57;;;;;;;;;;5054481;28;20732;-52
2022/01/03 07:00:46;;;;;;;14.67;3.50;;;;;;;;;;5054559;28;20425;-52
2022/01/03 07:03:13;;;;;;;11.50;3.33;;;;;;;;;;5054797;28;20394;-52
2022/01/03 07:05:39;;;;;;;19.07;3.40;;;;;;;;;;5055206;28;20485;-54
2022/01/03 07:08:05;;;;;;;13.93;3.27;;;;;;;;;;5053309;28;20389;-54
2022/01/03 07:10:31;;;;;;;8.70;2.50;;;;;;;;;;5053663;28;20938;-54
2022/01/03 07:12:59;;;;;;;16.03;3.13;;;;;;;;;;5052608;28;20497;-54
2022/01/03 07:20:54;;;;;;;11.17;2.63;;;;;;;;;;5054506;28;20510;-54
2022/01/03 07:23:22;;;;;;;6.83;2.73;;;;;;;;;;5054068;28;20434;-54
2022/01/03 07:25:48;;;;;;;5.20;2.33;;;;;;;;;;5054219;28;20465;-54
2022/01/03 07:28:14;;;;;;;9.03;2.43;;;;;;;;;;5053964;28;20410;-54
2022/01/03 07:30:40;;;;;;;17.80;2.50;;;;;;;;;;5053882;28;20423;-54
2022/01/03 07:33:06;;;;;;;16.97;3.27;;;;;;;;;;5054615;28;20480;-55
2022/01/03 07:35:32;;;;;;;9.80;2.87;;;;;;;;;;5053921;28;20401;-54
2022/01/03 07:38:00;;;;;;;8.83;2.40;;;;;;;;;;5053781;28;20497;-54
2022/01/03 07:40:27;;;;;;;10.87;2.53;;;;;;;;;;5053876;28;20520;-54
2022/01/03 07:42:53;;;;;;;7.30;2.60;;;;;;;;;;5053836;28;20885;-54
2022/01/03 07:45:19;;;;;;;7.40;2.73;;;;;;;;;;5053658;28;20476;-54
2022/01/03 07:47:45;;;;;;;8.53;2.40;;;;;;;;;;5053470;28;20425;-54
2022/01/03 07:50:12;;;;;;;9.20;2.40;;;;;;;;;;5053698;28;20425;-54
2022/01/03 07:52:38;;;;;;;8.00;2.23;;;;;;;;;;5053562;28;20898;-54
2022/01/03 07:55:06;;;;;;;12.43;2.83;;;;;;;;;;5053671;28;20402;-54
2022/01/03 07:57:32;;;;;;;15.00;2.27;;;;;;;;;;5053492;28;20405;-54
2022/01/03 07:59:58;;;;;;;5.73;2.23;;;;;;;;;;5050952;28;20471;-54
2022/01/03 08:02:24;;;;;;;13.10;3.07;;;;;;;;;;5043926;28;20430;-54
2022/01/03 08:04:51;;;;;;;10.43;2.60;;;;;;;;;;5031708;28;21233;-54
2022/01/03 08:07:17;;;;;;;6.33;2.40;;;;;;;;;;5035394;28;20406;-53
2022/01/03 08:09:43;;;;;;;6.07;2.40;;;;;;;;;;5032523;28;20398;-52
2022/01/03 08:12:09;;;;;;;10.17;2.60;;;;;;;;;;5030846;28;20505;-54
2022/01/03 08:14:35;;;;;;;17.73;3.10;;;;;;;;;;5031519;28;20420;-54
2022/01/03 08:17:01;;;;;;;15.67;2.40;;;;;;;;;;5032608;28;21057;-52
2022/01/03 08:19:27;;;;;;;9.53;2.77;;;;;;;;;;5033205;28;20775;-52
2022/01/03 08:21:53;;;;;;;14.27;2.57;;;;;;;;;;5033124;28;20422;-52
2022/01/03 08:24:20;;;;;;;13.97;2.40;;;;;;;;;;5032326;28;20498;-52
2022/01/03 08:26:46;;;;;;;12.70;2.73;;;;;;;;;;5032827;28;20955;-53
2022/01/03 08:29:12;;;;;;;9.30;2.63;;;;;;;;;;5033236;28;20398;-52
2022/01/03 08:31:38;;;;;;;17.07;3.70;;;;;;;;;;5032972;28;20422;-52
2022/01/03 08:34:05;;;;;;;10.23;2.90;;;;;;;;;;5033047;28;20898;-52
2022/01/03 08:36:31;;;;;;;9.80;2.90;;;;;;;;;;5032697;28;20406;-53
2022/01/03 08:38:57;;;;;;;7.50;2.63;;;;;;;;;;5033015;28;20405;-52
2022/01/03 08:41:22;;;;;;;15.40;2.70;;;;;;;;;;5032887;28;20783;-52
2022/01/03 08:43:49;;;;;;;14.50;2.87;;;;;;;;;;5032717;28;20422;-52
2022/01/03 08:46:15;;;;;;;10.10;2.60;;;;;;;;;;5032959;28;20453;-52
2022/01/03 08:48:41;;;;;;;9.87;2.60;;;;;;;;;;5032470;28;20398;-53
2022/01/03 08:51:07;;;;;;;12.20;2.70;;;;;;;;;;5032713;28;20785;-52
2022/01/03 08:53:33;;;;;;;18.03;3.53;;;;;;;;;;5032652;28;20398;-52
2022/01/03 08:55:59;;;;;;;5.80;2.90;;;;;;;;;;5032639;28;20766;-53
2022/01/03 08:58:26;;;;;;;9.30;3.07;;;;;;;;;;5032277;28;20502;-52
2022/01/03 09:00:52;;;;;;;9.53;3.40;;;;;;;;;;5032490;28;20851;-52
2022/01/03 09:03:19;;;;;;;12.37;3.37;;;;;;;;;;5032416;28;20450;-53
2022/01/03 09:05:45;;;;;;;13.70;3.00;;;;;;;;;;5032584;28;20856;-53
2022/01/03 09:08:11;;;;;;;8.43;2.67;;;;;;;;;;5032059;28;20429;-54
2022/01/03 09:10:37;;;;;;;10.47;3.17;;;;;;;;;;5032371;28;20425;-52
2022/01/03 09:13:04;;;;;;;13.53;2.60;;;;;;;;;;5032279;28;20485;-53
2022/01/03 09:15:30;;;;;;;13.80;2.80;;;;;;;;;;5032389;28;20409;-53
2022/01/03 09:17:56;;;;;;;15.50;3.30;;;;;;;;;;5032004;28;20497;-53
2022/01/03 09:20:22;;;;;;;11.70;3.40;;;;;;;;;;5032242;28;20431;-54
2022/01/03 09:22:51;;;;;;;11.63;3.40;;;;;;;;;;5032146;28;20484;-54
2022/01/03 09:30:30;;;;;;;17.77;3.13;;;;;;;;;;5037910;28;20546;-52
2022/01/03 09:32:56;;;;;;;19.77;3.40;;;;;;;;;;5052651;28;20412;-52
2022/01/03 09:35:22;;;;;;;16.50;6.23;;;;;;;;;;5051516;28;20806;-52
2022/01/03 09:37:48;;;;;;;10.97;2.70;;;;;;;;;;5051640;28;20424;-52
2022/01/03 09:40:15;;;;;;;13.33;3.13;;;;;;;;;;5050482;28;20928;-53
2022/01/03 09:42:43;;;;;;;13.53;4.00;;;;;;;;;;5051761;28;20393;-52
2022/01/03 09:45:11;;;;;;;23.77;4.23;;;;;;;;;;5051504;28;20476;-52
2022/01/03 09:47:41;;;;;;;5.90;2.40;;;;;;;;;;5051354;28;20437;-54
2022/01/03 09:50:08;;;;;;;16.37;3.57;;;;;;;;;;5052233;28;20394;-54
2022/01/03 09:52:35;;;;;;;10.60;3.37;;;;;;;;;;5051583;28;20398;-54
2022/01/03 09:55:01;;;;;;;15.27;4.17;;;;;;;;;;5051485;28;20398;-54
2022/01/03 09:57:28;;;;;;;10.03;3.37;;;;;;;;;;5051260;28;20398;-53
2022/01/03 09:59:54;;;;;;;13.10;3.17;;;;;;;;;;5051493;28;20522;-53
2022/01/03 10:02:21;;;;;;;12.47;3.07;;;;;;;;;;5051565;28;20427;-55
2022/01/03 10:04:48;;;;;;;15.00;3.00;;;;;;;;;;5051451;28;20445;-54
2022/01/03 10:07:14;;;;;;;13.30;3.13;;;;;;;;;;5051110;28;20397;-54
2022/01/03 10:09:41;;;;;;;9.73;3.60;;;;;;;;;;5051489;28;20474;-54
2022/01/03 10:12:09;;;;;;;19.07;3.40;;;;;;;;;;5050018;28;20863;-53
2022/01/03 10:14:35;;;;;;;18.20;3.10;;;;;;;;;;5051398;28;20422;-55
2022/01/03 10:17:01;;;;;;;9.63;3.73;;;;;;;;;;5051073;28;20405;-54
2022/01/03 10:19:27;;;;;;;12.27;2.73;;;;;;;;;;5051398;28;20451;-54
2022/01/03 10:21:54;;;;;;;11.23;2.90;;;;;;;;;;5051194;28;20426;-53
2022/01/03 10:24:31;;;;;;;8.77;3.87;;;;;;;;;;5051382;28;20405;-54
2022/01/03 10:26:57;;;;;;;11.03;3.50;;;;;;;;;;5051099;28;20398;-54
2022/01/03 10:29:25;;;;;;;7.57;2.90;;;;;;;;;;5051298;28;20398;-53
2022/01/03 10:31:53;;;;;;;11.77;3.37;;;;;;;;;;5051147;28;20421;-55
2022/01/03 10:34:19;;;;;;;5.30;2.77;;;;;;;;;;5051177;28;20403;-53
2022/01/03 10:36:47;;;;;;;13.53;3.40;;;;;;;;;;5050902;28;20406;-54
2022/01/03 10:39:23;;;;;;;7.70;2.63;;;;;;;;;;5051174;28;20398;-53
2022/01/03 10:41:50;;;;;;;7.13;2.97;;;;;;;;;;5051148;28;20424;-54
2022/01/03 10:44:30;;;;;;;8.50;2.47;;;;;;;;;;5051031;28;20770;-54
2022/01/03 10:46:57;;;;;;;8.00;2.40;;;;;;;;;;5051145;28;20413;-54
2022/01/03 10:49:24;;;;;;;13.23;3.60;;;;;;;;;;5054168;28;20457;-54
2022/01/03 10:51:50;;;;;;;14.07;3.73;;;;;;;;;;5054908;28;20456;-54
2022/01/03 10:54:18;;;;;;;10.13;3.00;;;;;;;;;;5048910;28;20395;-54
2022/01/03 10:56:50;;;;;;;7.10;2.93;;;;;;;;;;5034448;28;20471;-54
2022/01/03 10:59:21;;;;;;;9.67;2.90;;;;;;;;;;5034674;28;20433;-54
2022/01/03 11:01:50;;;;;;;9.93;2.40;;;;;;;;;;5034590;28;20913;-53
2022/01/03 11:04:26;;;;;;;13.33;2.53;;;;;;;;;;5034737;28;20484;-54
2022/01/03 11:13:08;;;;;;;11.60;2.50;;;;;;;;;;5034502;28;20502;-54
2022/01/03 11:15:35;;;;;;;5.80;2.70;;;;;;;;;;5034483;28;20495;-54
2022/01/03 11:18:16;;;;;;;12.03;2.30;;;;;;;;;;5034021;28;20438;-54
2022/01/03 11:20:42;;;;;;;9.17;2.90;;;;;;;;;;5032872;28;20434;-54
2022/01/03 11:23:08;;;;;;;11.93;3.00;;;;;;;;;;5033284;28;20938;-55
2022/01/03 11:25:35;;;;;;;11.77;3.50;;;;;;;;;;5033213;28;20466;-55
2022/01/03 11:28:02;;;;;;;16.47;3.83;;;;;;;;;;5033878;28;20413;-54
2022/01/03 11:30:29;;;;;;;11.23;2.80;;;;;;;;;;5034164;28;20431;-53
2022/01/03 11:32:56;;;;;;;5.70;2.00;;;;;;;;;;5034281;28;20806;-54
2022/01/03 11:35:22;;;;;;;10.53;2.70;;;;;;;;;;5034176;28;20411;-54
2022/01/03 11:37:49;;;;;;;5.30;2.33;;;;;;;;;;5033793;28;20410;-54
2022/01/03 11:40:17;;;;;;;8.73;2.83;;;;;;;;;;5034051;28;20430;-53
2022/01/03 11:42:43;;;;;;;5.40;2.53;;;;;;;;;;5034055;28;20413;-54
2022/01/03 11:45:09;;;;;;;13.60;2.70;;;;;;;;;;5033631;28;20475;-53
2022/01/03 11:47:36;;;;;;;16.07;3.13;;;;;;;;;;5033707;28;20404;-53
2022/01/03 11:50:02;;;;;;;8.70;3.07;;;;;;;;;;5033820;28;20900;-53
2022/01/03 11:52:28;;;;;;;8.63;2.90;;;;;;;;;;5033911;28;20891;-55
2022/01/03 11:54:55;;;;;;;8.10;2.03;;;;;;;;;;5033794;28;20442;-55
2022/01/03 11:57:38;;;;;;;14.10;3.13;;;;;;;;;;5033434;28;20405;-53
2022/01/03 12:05:53;;;;;;;6.37;2.30;;;;;;;;;;5053351;28;20871;-54
2022/01/03 12:08:24;;;;;;;12.40;2.90;;;;;;;;;;5052953;28;20408;-55
2022/01/03 12:10:50;;;;;;;9.33;2.93;;;;;;;;;;5053275;28;20776;-53
2022/01/03 12:13:16;;;;;;;10.63;2.73;;;;;;;;;;5053285;28;20910;-54
2022/01/03 12:15:42;;;;;;;11.73;3.37;;;;;;;;;;5053269;28;20407;-53
2022/01/03 12:18:28;;;;;;;12.50;2.43;;;;;;;;;;5052971;28;20414;-54
2022/01/03 12:20:54;;;;;;;6.47;3.10;;;;;;;;;;5061001;28;21438;-55
2022/01/03 12:23:39;;;;;;;11.80;4.20;;;;;;;;;;5054418;28;20417;-53
2022/01/03 12:26:19;;;;;;;6.10;2.23;;;;;;;;;;5042474;28;20669;-53
2022/01/03 12:29:05;;;;;;;7.23;2.53;;;;;;;;;;5046335;28;20411;-53
2022/01/03 12:31:49;;;;;;;8.47;2.50;;;;;;;;;;5042264;28;20423;-53
2022/01/03 12:34:18;;;;;;;4.77;2.50;;;;;;;;;;5044084;28;20770;-54
2022/01/03 12:37:04;;;;;;;5.53;2.10;;;;;;;;;;5052668;28;20406;-53
2022/01/03 12:39:30;;;;;;;12.50;3.47;;;;;;;;;;5052527;28;20397;-53
2022/01/03 12:41:56;;;;;;;14.33;3.00;;;;;;;;;;5052660;28;20944;-54
2022/01/03 12:44:41;;;;;;;13.97;3.40;;;;;;;;;;5040240;28;20485;-54
2022/01/03 12:47:16;;;;;;;8.17;2.83;;;;;;;;;;5052242;28;20894;-54
2022/01/03 12:49:42;;;;;;;12.47;3.20;;;;;;;;;;5053406;28;20745;-55
2022/01/03 12:52:15;;;;;;;6.87;2.33;;;;;;;;;;5054648;28;20529;-54
2022/01/03 12:54:42;;;;;;;7.57;1.83;;;;;;;;;;5056049;28;20408;-55
2022/01/03 12:57:13;;;;;;;13.97;3.00;;;;;;;;;;5055160;28;20401;-54
2022/01/03 12:59:39;;;;;;;11.10;2.83;;;;;;;;;;5054905;28;20453;-55
2022/01/03 13:02:23;;;;;;;8.17;2.40;;;;;;;;;;5054931;28;20497;-54
2022/01/03 13:04:49;;;;;;;8.70;2.43;;;;;;;;;;5054493;28;20460;-54
2022/01/03 13:07:21;;;;;;;10.53;2.37;;;;;;;;;;5053101;28;20402;-54
2022/01/03 13:09:47;;;;;;;6.93;2.63;;;;;;;;;;5053085;28;20389;-54
2022/01/03 13:12:13;;;;;;;8.23;2.30;;;;;;;;;;5052666;28;20422;-54
2022/01/03 13:14:39;;;;;;;16.03;2.70;;;;;;;;;;5053332;28;20401;-54
2022/01/03 13:17:05;;;;;;;11.37;2.00;;;;;;;;;;5052925;28;20409;-54
2022/01/03 13:19:32;;;;;;;3.93;2.30;;;;;;;;;;5053382;28;20412;-54
2022/01/03 13:22:00;;;;;;;6.63;2.60;;;;;;;;;;5049053;28;20866;-54
2022/01/03 13:24:26;;;;;;;7.00;2.30;;;;;;;;;;5043293;28;20417;-54
2022/01/03 13:27:13;;;;;;;8.13;3.70;;;;;;;;;;5032807;28;21016;-54
2022/01/03 13:29:47;;;;;;;13.07;3.50;;;;;;;;;;5033492;28;20916;-54
2022/01/03 13:32:27;;;;;;;19.87;2.70;;;;;;;;;;5032959;28;20921;-54
2022/01/03 13:34:53;;;;;;;20.00;4.23;;;;;;;;;;5032127;28;20882;-54
2022/01/03 13:37:22;;;;;;;10.27;2.67;;;;;;;;;;5031786;28;20407;-54
2022/01/03 13:39:49;;;;;;;6.20;2.77;;;;;;;;;;5032167;28;20406;-53
2022/01/03 13:42:23;;;;;;;16.57;2.73;;;;;;;;;;5031865;28;20896;-52
2022/01/03 13:50:15;;;;;;;5.70;2.60;;;;;;;;;;5031432;28;20417;-53
2022/01/03 13:52:43;;;;;;;13.30;3.10;;;;;;;;;;5030999;28;20459;-53
2022/01/03 13:55:36;;;;;;;4.60;2.23;;;;;;;;;;5030759;28;20409;-53
2022/01/03 13:58:04;;;;;;;5.33;1.90;;;;;;;;;;5028373;28;20953;-52
2022/01/03 14:00:31;;;;;;;3.80;1.90;;;;;;;;;;5031494;28;20468;-53
2022/01/03 14:02:57;;;;;;;6.30;2.10;;;;;;;;;;5031639;28;20406;-52
2022/01/03 14:05:23;;;;;;;3.97;1.80;;;;;;;;;;5031613;28;20456;-53
2022/01/03 14:07:57;;;;;;;7.13;2.70;;;;;;;;;;5031378;28;20564;-53
2022/01/03 14:10:43;;;;;;;6.00;2.00;;;;;;;;;;5031531;28;20422;-53
2022/01/03 14:13:10;;;;;;;11.03;2.20;;;;;;;;;;5031755;28;20410;-53
2022/01/03 14:15:37;;;;;;;2.83;1.60;;;;;;;;;;5031476;28;20912;-52
2022/01/03 14:18:03;;;;;;;5.83;1.63;;;;;;;;;;5031213;28;20490;-53
2022/01/03 14:20:29;;;;;;;11.20;2.37;;;;;;;;;;5031410;28;20437;-54
2022/01/03 14:22:55;;;;;;;5.23;1.90;;;;;;;;;;5034096;28;20536;-53
2022/01/03 14:25:24;;;;;;;4.63;2.17;;;;;;;;;;5035229;28;20536;-53
2022/01/03 14:28:04;;;;;;;7.90;2.40;;;;;;;;;;5034959;28;20408;-52
2022/01/03 14:30:34;;;;;;;4.77;2.30;;;;;;;;;;5035262;28;20421;-52
2022/01/03 14:33:02;;;;;;;11.77;2.97;;;;;;;;;;5035243;28;20444;-52
2022/01/03 14:35:33;;;;;;;5.60;4.90;;;;;;;;;;5035254;28;20409;-52
2022/01/03 14:38:00;;;;;;;6.53;2.50;;;;;;;;;;5034812;28;20469;-52
2022/01/03 14:40:36;;;;;;;6.67;2.10;;;;;;;;;;5034952;28;20428;-53
2022/01/03 14:43:04;;;;;;;11.73;3.40;;;;;;;;;;5035113;28;20488;-52
2022/01/03 14:45:32;;;;;;;3.53;2.27;;;;;;;;;;5034887;28;20465;-52
2022/01/03 14:48:02;;;;;;;8.80;2.43;;;;;;;;;;5034811;28;20405;-52
2022/01/03 14:50:29;;;;;;;12.83;2.97;;;;;;;;;;5034726;28;20417;-53
2022/01/03 14:52:58;;;;;;;8.77;2.40;;;;;;;;;;5035133;28;20412;-52
2022/01/03 14:55:29;;;;;;;10.53;2.83;;;;;;;;;;5034758;28;20791;-52
2022/01/03 14:57:56;;;;;;;9.33;3.00;;;;;;;;;;5034712;28;20505;-52
2022/01/03 15:00:22;;;;;;;10.53;2.87;;;;;;;;;;5034734;28;20421;-52
2022/01/03 15:02:48;;;;;;;6.37;2.53;;;;;;;;;;5034716;28;20424;-51
2022/01/03 15:05:15;;;;;;;5.07;2.60;;;;;;;;;;5033850;28;20458;-51
2022/01/03 15:07:41;;;;;;;5.83;2.50;;;;;;;;;;5034398;28;20417;-52
2022/01/03 15:10:09;;;;;;;10.90;3.07;;;;;;;;;;5034578;28;20404;-51